sensor_id;sensor_type;location;lat;lon;timestamp;temperature;humidity
69382;DHT22;56560;50.692;12.844;2022-11-11T00:01:01;5.90;93.40
69382;DHT22;56560;50.692;12.844;2022-11-11T00:03:27;6.00;93.50
69382;DHT22;56560;50.692;12.844;2022-11-11T00:05:53;6.00;93.90
69382;DHT22;56560;50.692;12.844;2022-11-11T00:08:19;6.00;93.20
69382;DHT22;56560;50.692;12.844;2022-11-11T00:10:44;6.00;92.90
69382;DHT22;56560;50.692;12.844;2022-11-11T00:13:11;6.00;92.60
69382;DHT22;56560;50.692;12.844;2022-11-11T00:15:37;5.90;92.60
69382;DHT22;56560;50.692;12.844;2022-11-11T00:18:04;5.90;92.60
69382;DHT22;56560;50.692;12.844;2022-11-11T00:20:49;5.90;92.60
69382;DHT22;56560;50.692;12.844;2022-11-11T00:23:33;5.80;92.70
69382;DHT22;56560;50.692;12.844;2022-11-11T00:26:17;5.90;93.00
69382;DHT22;56560;50.692;12.844;2022-11-11T00:28:43;5.80;93.10
69382;DHT22;56560;50.692;12.844;2022-11-11T00:31:12;5.80;93.10
69382;DHT22;56560;50.692;12.844;2022-11-11T00:33:38;5.80;93.30
69382;DHT22;56560;50.692;12.844;2022-11-11T00:36:05;5.70;93.40
69382;DHT22;56560;50.692;12.844;2022-11-11T00:38:31;5.70;93.20
69382;DHT22;56560;50.692;12.844;2022-11-11T00:41:14;5.70;93.10
69382;DHT22;56560;50.692;12.844;2022-11-11T00:43:40;5.70;93.20
69382;DHT22;56560;50.692;12.844;2022-11-11T00:46:06;5.70;92.80
69382;DHT22;56560;50.692;12.844;2022-11-11T00:48:50;5.60;93.20
69382;DHT22;56560;50.692;12.844;2022-11-11T00:51:34;5.60;93.20
69382;DHT22;56560;50.692;12.844;2022-11-11T00:54:00;5.60;92.70
69382;DHT22;56560;50.692;12.844;2022-11-11T00:56:26;5.50;92.90
69382;DHT22;56560;50.692;12.844;2022-11-11T00:58:52;5.40;92.80
69382;DHT22;56560;50.692;12.844;2022-11-11T01:01:17;5.40;92.70
69382;DHT22;56560;50.692;12.844;2022-11-11T01:03:43;5.40;93.70
69382;DHT22;56560;50.692;12.844;2022-11-11T01:06:11;5.40;94.10
69382;DHT22;56560;50.692;12.844;2022-11-11T01:08:37;5.40;93.70
69382;DHT22;56560;50.692;12.844;2022-11-11T01:11:03;5.50;94.00
69382;DHT22;56560;50.692;12.844;2022-11-11T01:13:32;5.40;93.40
69382;DHT22;56560;50.692;12.844;2022-11-11T01:16:01;5.40;93.60
69382;DHT22;56560;50.692;12.844;2022-11-11T01:18:28;5.40;93.40
69382;DHT22;56560;50.692;12.844;2022-11-11T01:23:27;5.30;93.50
69382;DHT22;56560;50.692;12.844;2022-11-11T01:25:53;5.30;93.60
69382;DHT22;56560;50.692;12.844;2022-11-11T01:28:19;5.30;93.80
69382;DHT22;56560;50.692;12.844;2022-11-11T01:30:45;5.30;93.80
69382;DHT22;56560;50.692;12.844;2022-11-11T01:33:11;5.30;94.00
69382;DHT22;56560;50.692;12.844;2022-11-11T01:35:38;5.40;93.60
69382;DHT22;56560;50.692;12.844;2022-11-11T01:38:04;5.40;93.70
69382;DHT22;56560;50.692;12.844;2022-11-11T01:40:29;5.40;93.20
69382;DHT22;56560;50.692;12.844;2022-11-11T01:43:16;5.40;93.20
69382;DHT22;56560;50.692;12.844;2022-11-11T01:45:52;5.30;93.40
69382;DHT22;56560;50.692;12.844;2022-11-11T01:48:28;5.30;93.60
69382;DHT22;56560;50.692;12.844;2022-11-11T01:54:05;5.50;93.70
69382;DHT22;56560;50.692;12.844;2022-11-11T01:56:31;5.50;93.40
69382;DHT22;56560;50.692;12.844;2022-11-11T01:59:02;5.60;93.20
69382;DHT22;56560;50.692;12.844;2022-11-11T02:01:28;5.60;93.00
69382;DHT22;56560;50.692;12.844;2022-11-11T02:03:55;5.60;93.30
69382;DHT22;56560;50.692;12.844;2022-11-11T02:06:40;5.60;92.90
69382;DHT22;56560;50.692;12.844;2022-11-11T02:09:06;5.60;93.00
69382;DHT22;56560;50.692;12.844;2022-11-11T02:11:34;5.60;92.70
69382;DHT22;56560;50.692;12.844;2022-11-11T02:14:19;5.60;92.60
69382;DHT22;56560;50.692;12.844;2022-11-11T02:17:10;5.50;92.50
69382;DHT22;56560;50.692;12.844;2022-11-11T02:22:27;5.50;92.20
69382;DHT22;56560;50.692;12.844;2022-11-11T02:24:56;5.50;92.40
69382;DHT22;56560;50.692;12.844;2022-11-11T02:27:24;5.40;92.40
69382;DHT22;56560;50.692;12.844;2022-11-11T02:29:54;5.40;92.30
69382;DHT22;56560;50.692;12.844;2022-11-11T02:32:20;5.40;93.00
69382;DHT22;56560;50.692;12.844;2022-11-11T02:34:45;5.40;93.00
69382;DHT22;56560;50.692;12.844;2022-11-11T02:37:12;5.50;92.80
69382;DHT22;56560;50.692;12.844;2022-11-11T02:39:43;5.50;92.90
69382;DHT22;56560;50.692;12.844;2022-11-11T02:42:13;5.50;92.80
69382;DHT22;56560;50.692;12.844;2022-11-11T02:44:39;5.60;93.00
69382;DHT22;56560;50.692;12.844;2022-11-11T02:47:05;5.60;92.70
69382;DHT22;56560;50.692;12.844;2022-11-11T02:49:31;5.60;92.60
69382;DHT22;56560;50.692;12.844;2022-11-11T02:51:56;5.70;92.50
69382;DHT22;56560;50.692;12.844;2022-11-11T02:54:22;5.70;92.50
69382;DHT22;56560;50.692;12.844;2022-11-11T02:56:48;5.70;92.20
69382;DHT22;56560;50.692;12.844;2022-11-11T02:59:32;5.80;92.10
69382;DHT22;56560;50.692;12.844;2022-11-11T03:01:58;5.80;91.90
69382;DHT22;56560;50.692;12.844;2022-11-11T03:04:24;5.80;91.90
69382;DHT22;56560;50.692;12.844;2022-11-11T03:06:49;5.80;91.50
69382;DHT22;56560;50.692;12.844;2022-11-11T03:09:15;5.90;91.70
69382;DHT22;56560;50.692;12.844;2022-11-11T03:11:40;5.90;91.50
69382;DHT22;56560;50.692;12.844;2022-11-11T03:14:06;6.00;91.40
69382;DHT22;56560;50.692;12.844;2022-11-11T03:16:32;6.10;90.80
69382;DHT22;56560;50.692;12.844;2022-11-11T03:19:17;6.20;91.10
69382;DHT22;56560;50.692;12.844;2022-11-11T03:21:42;6.30;90.50
69382;DHT22;56560;50.692;12.844;2022-11-11T03:24:08;6.40;90.50
69382;DHT22;56560;50.692;12.844;2022-11-11T03:26:34;6.30;89.60
69382;DHT22;56560;50.692;12.844;2022-11-11T03:28:59;6.30;89.60
69382;DHT22;56560;50.692;12.844;2022-11-11T03:31:25;6.30;89.40
69382;DHT22;56560;50.692;12.844;2022-11-11T03:33:50;6.20;89.70
69382;DHT22;56560;50.692;12.844;2022-11-11T03:36:16;6.20;89.70
69382;DHT22;56560;50.692;12.844;2022-11-11T03:38:42;6.20;90.00
69382;DHT22;56560;50.692;12.844;2022-11-11T03:41:07;6.20;90.00
69382;DHT22;56560;50.692;12.844;2022-11-11T03:43:33;6.20;90.50
69382;DHT22;56560;50.692;12.844;2022-11-11T03:46:03;6.20;90.30
69382;DHT22;56560;50.692;12.844;2022-11-11T03:48:32;6.20;90.00
69382;DHT22;56560;50.692;12.844;2022-11-11T03:50:58;6.20;90.00
69382;DHT22;56560;50.692;12.844;2022-11-11T03:53:24;6.20;89.40
69382;DHT22;56560;50.692;12.844;2022-11-11T03:55:50;6.20;89.50
69382;DHT22;56560;50.692;12.844;2022-11-11T03:58:17;6.20;89.50
69382;DHT22;56560;50.692;12.844;2022-11-11T04:00:44;6.30;89.60
69382;DHT22;56560;50.692;12.844;2022-11-11T04:03:14;6.30;89.30
69382;DHT22;56560;50.692;12.844;2022-11-11T04:06:00;6.30;89.40
69382;DHT22;56560;50.692;12.844;2022-11-11T04:08:44;6.30;89.20
69382;DHT22;56560;50.692;12.844;2022-11-11T04:11:40;6.20;89.80
69382;DHT22;56560;50.692;12.844;2022-11-11T04:14:11;6.30;89.70
69382;DHT22;56560;50.692;12.844;2022-11-11T04:16:56;6.30;90.00
69382;DHT22;56560;50.692;12.844;2022-11-11T04:19:22;6.30;89.50
69382;DHT22;56560;50.692;12.844;2022-11-11T04:22:06;6.20;89.70
69382;DHT22;56560;50.692;12.844;2022-11-11T04:24:32;6.20;89.80
69382;DHT22;56560;50.692;12.844;2022-11-11T04:27:17;6.20;89.80
69382;DHT22;56560;50.692;12.844;2022-11-11T04:29:44;6.20;89.30
69382;DHT22;56560;50.692;12.844;2022-11-11T04:32:17;6.20;89.40
69382;DHT22;56560;50.692;12.844;2022-11-11T04:35:09;6.20;89.80
69382;DHT22;56560;50.692;12.844;2022-11-11T04:37:43;6.20;89.30
69382;DHT22;56560;50.692;12.844;2022-11-11T04:40:10;6.30;88.80
69382;DHT22;56560;50.692;12.844;2022-11-11T04:42:54;6.30;89.10
69382;DHT22;56560;50.692;12.844;2022-11-11T04:45:19;6.30;89.10
69382;DHT22;56560;50.692;12.844;2022-11-11T04:47:58;6.30;88.60
69382;DHT22;56560;50.692;12.844;2022-11-11T04:50:28;6.30;88.80
69382;DHT22;56560;50.692;12.844;2022-11-11T04:52:55;6.20;88.40
69382;DHT22;56560;50.692;12.844;2022-11-11T04:55:21;6.30;88.40
69382;DHT22;56560;50.692;12.844;2022-11-11T04:58:06;6.30;88.90
69382;DHT22;56560;50.692;12.844;2022-11-11T05:00:31;6.30;88.50
69382;DHT22;56560;50.692;12.844;2022-11-11T05:02:58;6.30;88.30
69382;DHT22;56560;50.692;12.844;2022-11-11T05:05:51;6.30;88.20
69382;DHT22;56560;50.692;12.844;2022-11-11T05:08:39;6.40;87.80
69382;DHT22;56560;50.692;12.844;2022-11-11T05:13:47;6.50;87.90
69382;DHT22;56560;50.692;12.844;2022-11-11T05:16:36;6.50;88.10
69382;DHT22;56560;50.692;12.844;2022-11-11T05:19:21;6.50;87.20
69382;DHT22;56560;50.692;12.844;2022-11-11T05:24:37;6.60;86.50
69382;DHT22;56560;50.692;12.844;2022-11-11T05:27:22;6.60;86.30
69382;DHT22;56560;50.692;12.844;2022-11-11T05:29:47;6.60;85.80
69382;DHT22;56560;50.692;12.844;2022-11-11T05:32:17;6.70;86.00
69382;DHT22;56560;50.692;12.844;2022-11-11T05:34:44;6.70;85.60
69382;DHT22;56560;50.692;12.844;2022-11-11T05:37:10;6.70;85.60
69382;DHT22;56560;50.692;12.844;2022-11-11T05:39:35;6.60;85.50
69382;DHT22;56560;50.692;12.844;2022-11-11T05:42:01;6.60;85.40
69382;DHT22;56560;50.692;12.844;2022-11-11T05:44:27;6.60;85.60
69382;DHT22;56560;50.692;12.844;2022-11-11T05:46:52;6.60;85.50
69382;DHT22;56560;50.692;12.844;2022-11-11T05:49:18;6.60;85.70
69382;DHT22;56560;50.692;12.844;2022-11-11T05:51:44;6.60;86.00
69382;DHT22;56560;50.692;12.844;2022-11-11T05:54:10;6.60;86.20
69382;DHT22;56560;50.692;12.844;2022-11-11T05:56:36;6.60;85.40
69382;DHT22;56560;50.692;12.844;2022-11-11T05:59:02;6.60;85.30
69382;DHT22;56560;50.692;12.844;2022-11-11T06:01:28;6.70;85.10
69382;DHT22;56560;50.692;12.844;2022-11-11T06:03:53;6.70;84.70
69382;DHT22;56560;50.692;12.844;2022-11-11T06:06:19;6.80;84.40
69382;DHT22;56560;50.692;12.844;2022-11-11T06:08:45;6.80;84.20
69382;DHT22;56560;50.692;12.844;2022-11-11T06:11:10;6.80;83.90
69382;DHT22;56560;50.692;12.844;2022-11-11T06:13:36;6.80;84.20
69382;DHT22;56560;50.692;12.844;2022-11-11T06:16:03;6.80;84.40
69382;DHT22;56560;50.692;12.844;2022-11-11T06:18:29;6.80;84.70
69382;DHT22;56560;50.692;12.844;2022-11-11T06:20:55;6.70;84.60
69382;DHT22;56560;50.692;12.844;2022-11-11T06:23:22;6.60;84.70
69382;DHT22;56560;50.692;12.844;2022-11-11T06:25:48;6.50;84.80
69382;DHT22;56560;50.692;12.844;2022-11-11T06:28:33;6.50;85.00
69382;DHT22;56560;50.692;12.844;2022-11-11T06:30:59;6.50;85.20
69382;DHT22;56560;50.692;12.844;2022-11-11T06:33:24;6.60;84.20
69382;DHT22;56560;50.692;12.844;2022-11-11T06:35:50;6.60;84.20
69382;DHT22;56560;50.692;12.844;2022-11-11T06:38:17;6.60;84.40
69382;DHT22;56560;50.692;12.844;2022-11-11T06:40:43;6.70;83.70
69382;DHT22;56560;50.692;12.844;2022-11-11T06:43:09;6.70;83.40
69382;DHT22;56560;50.692;12.844;2022-11-11T06:45:35;6.70;83.10
69382;DHT22;56560;50.692;12.844;2022-11-11T06:48:02;6.70;83.00
69382;DHT22;56560;50.692;12.844;2022-11-11T06:50:28;6.80;83.70
69382;DHT22;56560;50.692;12.844;2022-11-11T06:52:54;6.80;82.80
69382;DHT22;56560;50.692;12.844;2022-11-11T06:55:20;6.90;81.50
69382;DHT22;56560;50.692;12.844;2022-11-11T06:57:46;7.00;81.40
69382;DHT22;56560;50.692;12.844;2022-11-11T07:00:13;7.10;80.40
69382;DHT22;56560;50.692;12.844;2022-11-11T07:02:39;7.20;79.90
69382;DHT22;56560;50.692;12.844;2022-11-11T07:05:05;7.30;79.90
69382;DHT22;56560;50.692;12.844;2022-11-11T07:07:31;7.50;78.70
69382;DHT22;56560;50.692;12.844;2022-11-11T07:09:56;7.60;78.10
69382;DHT22;56560;50.692;12.844;2022-11-11T07:12:23;7.70;77.90
69382;DHT22;56560;50.692;12.844;2022-11-11T07:14:49;7.90;76.60
69382;DHT22;56560;50.692;12.844;2022-11-11T07:17:15;7.90;76.80
69382;DHT22;56560;50.692;12.844;2022-11-11T07:19:40;8.10;76.50
69382;DHT22;56560;50.692;12.844;2022-11-11T07:22:06;8.10;76.80
69382;DHT22;56560;50.692;12.844;2022-11-11T07:24:31;8.20;76.40
69382;DHT22;56560;50.692;12.844;2022-11-11T07:26:57;8.30;76.10
69382;DHT22;56560;50.692;12.844;2022-11-11T07:29:24;8.40;75.80
69382;DHT22;56560;50.692;12.844;2022-11-11T07:31:49;8.50;75.10
69382;DHT22;56560;50.692;12.844;2022-11-11T07:34:15;8.70;74.70
69382;DHT22;56560;50.692;12.844;2022-11-11T07:36:41;8.80;74.10
69382;DHT22;56560;50.692;12.844;2022-11-11T07:39:07;8.90;73.60
69382;DHT22;56560;50.692;12.844;2022-11-11T07:41:32;9.00;72.40
69382;DHT22;56560;50.692;12.844;2022-11-11T07:43:58;9.10;73.40
69382;DHT22;56560;50.692;12.844;2022-11-11T07:46:24;9.20;72.60
69382;DHT22;56560;50.692;12.844;2022-11-11T07:48:50;9.20;72.00
69382;DHT22;56560;50.692;12.844;2022-11-11T07:51:16;9.30;71.90
69382;DHT22;56560;50.692;12.844;2022-11-11T07:53:41;9.40;71.50
69382;DHT22;56560;50.692;12.844;2022-11-11T07:56:07;9.50;71.20
69382;DHT22;56560;50.692;12.844;2022-11-11T07:58:32;9.50;71.20
69382;DHT22;56560;50.692;12.844;2022-11-11T08:00:59;9.50;72.20
69382;DHT22;56560;50.692;12.844;2022-11-11T08:03:27;9.50;71.20
69382;DHT22;56560;50.692;12.844;2022-11-11T08:05:54;9.50;72.00
69382;DHT22;56560;50.692;12.844;2022-11-11T08:08:20;9.60;72.20
69382;DHT22;56560;50.692;12.844;2022-11-11T08:10:52;9.60;71.70
69382;DHT22;56560;50.692;12.844;2022-11-11T08:13:17;9.60;70.10
69382;DHT22;56560;50.692;12.844;2022-11-11T08:16:02;9.70;71.10
69382;DHT22;56560;50.692;12.844;2022-11-11T08:18:30;9.80;70.10
69382;DHT22;56560;50.692;12.844;2022-11-11T08:20:57;9.80;70.10
69382;DHT22;56560;50.692;12.844;2022-11-11T08:23:22;10.00;70.40
69382;DHT22;56560;50.692;12.844;2022-11-11T08:26:01;10.10;70.10
69382;DHT22;56560;50.692;12.844;2022-11-11T08:28:27;10.30;68.40
69382;DHT22;56560;50.692;12.844;2022-11-11T08:30:53;10.50;68.30
69382;DHT22;56560;50.692;12.844;2022-11-11T08:33:19;10.60;67.30
69382;DHT22;56560;50.692;12.844;2022-11-11T08:35:45;10.80;66.70
69382;DHT22;56560;50.692;12.844;2022-11-11T08:38:11;11.00;65.60
69382;DHT22;56560;50.692;12.844;2022-11-11T08:40:38;11.20;65.30
69382;DHT22;56560;50.692;12.844;2022-11-11T08:43:03;11.30;65.00
69382;DHT22;56560;50.692;12.844;2022-11-11T08:45:29;11.30;64.70
69382;DHT22;56560;50.692;12.844;2022-11-11T08:47:55;11.40;64.10
69382;DHT22;56560;50.692;12.844;2022-11-11T08:50:20;11.50;63.70
69382;DHT22;56560;50.692;12.844;2022-11-11T08:52:48;11.60;63.90
69382;DHT22;56560;50.692;12.844;2022-11-11T08:55:14;11.80;63.20
69382;DHT22;56560;50.692;12.844;2022-11-11T08:57:40;11.90;62.80
69382;DHT22;56560;50.692;12.844;2022-11-11T09:00:06;12.00;62.00
69382;DHT22;56560;50.692;12.844;2022-11-11T09:02:32;12.20;62.80
69382;DHT22;56560;50.692;12.844;2022-11-11T09:04:58;12.40;61.80
69382;DHT22;56560;50.692;12.844;2022-11-11T09:07:24;12.40;61.20
69382;DHT22;56560;50.692;12.844;2022-11-11T09:09:50;12.50;60.60
69382;DHT22;56560;50.692;12.844;2022-11-11T09:12:16;12.70;61.30
69382;DHT22;56560;50.692;12.844;2022-11-11T09:14:41;12.90;60.90
69382;DHT22;56560;50.692;12.844;2022-11-11T09:17:07;13.00;59.80
69382;DHT22;56560;50.692;12.844;2022-11-11T09:19:33;13.00;58.90
69382;DHT22;56560;50.692;12.844;2022-11-11T09:21:58;13.10;58.80
69382;DHT22;56560;50.692;12.844;2022-11-11T09:24:24;13.10;58.10
69382;DHT22;56560;50.692;12.844;2022-11-11T09:26:50;13.20;58.10
69382;DHT22;56560;50.692;12.844;2022-11-11T09:29:17;13.20;57.80
69382;DHT22;56560;50.692;12.844;2022-11-11T09:31:43;13.30;56.80
69382;DHT22;56560;50.692;12.844;2022-11-11T09:34:08;13.20;56.20
69382;DHT22;56560;50.692;12.844;2022-11-11T09:36:34;13.20;56.30
69382;DHT22;56560;50.692;12.844;2022-11-11T09:39:00;13.10;56.40
69382;DHT22;56560;50.692;12.844;2022-11-11T09:46:53;13.10;57.40
69382;DHT22;56560;50.692;12.844;2022-11-11T09:52:22;13.10;56.80
69382;DHT22;56560;50.692;12.844;2022-11-11T09:57:56;13.10;56.00
69382;DHT22;56560;50.692;12.844;2022-11-11T10:00:35;13.10;55.80
69382;DHT22;56560;50.692;12.844;2022-11-11T10:03:20;13.10;56.60
69382;DHT22;56560;50.692;12.844;2022-11-11T10:11:28;13.20;55.80
69382;DHT22;56560;50.692;12.844;2022-11-11T10:13:55;13.20;56.10
69382;DHT22;56560;50.692;12.844;2022-11-11T10:24:29;13.50;56.10
69382;DHT22;56560;50.692;12.844;2022-11-11T10:26:56;13.60;56.10
69382;DHT22;56560;50.692;12.844;2022-11-11T10:29:25;13.60;56.60
69382;DHT22;56560;50.692;12.844;2022-11-11T10:32:01;13.70;56.90
69382;DHT22;56560;50.692;12.844;2022-11-11T10:34:36;13.80;55.80
69382;DHT22;56560;50.692;12.844;2022-11-11T10:37:02;13.90;56.30
69382;DHT22;56560;50.692;12.844;2022-11-11T10:39:49;14.00;56.00
69382;DHT22;56560;50.692;12.844;2022-11-11T10:42:18;14.10;56.00
69382;DHT22;56560;50.692;12.844;2022-11-11T10:44:44;14.20;55.10
69382;DHT22;56560;50.692;12.844;2022-11-11T10:47:24;14.20;56.30
69382;DHT22;56560;50.692;12.844;2022-11-11T10:50:15;14.30;55.80
69382;DHT22;56560;50.692;12.844;2022-11-11T10:52:53;14.40;55.50
69382;DHT22;56560;50.692;12.844;2022-11-11T10:55:37;14.40;55.90
69382;DHT22;56560;50.692;12.844;2022-11-11T11:00:47;14.30;55.00
69382;DHT22;56560;50.692;12.844;2022-11-11T11:03:21;14.30;55.30
69382;DHT22;56560;50.692;12.844;2022-11-11T11:08:41;14.30;55.50
69382;DHT22;56560;50.692;12.844;2022-11-11T11:11:38;14.30;55.50
69382;DHT22;56560;50.692;12.844;2022-11-11T11:14:15;14.40;55.00
69382;DHT22;56560;50.692;12.844;2022-11-11T11:16:48;14.50;55.50
69382;DHT22;56560;50.692;12.844;2022-11-11T11:19:20;14.60;54.60
69382;DHT22;56560;50.692;12.844;2022-11-11T11:21:59;14.90;54.80
69382;DHT22;56560;50.692;12.844;2022-11-11T11:24:33;15.10;53.80
69382;DHT22;56560;50.692;12.844;2022-11-11T11:27:03;15.40;52.40
69382;DHT22;56560;50.692;12.844;2022-11-11T11:29:37;15.50;52.30
69382;DHT22;56560;50.692;12.844;2022-11-11T11:32:19;15.50;52.50
69382;DHT22;56560;50.692;12.844;2022-11-11T11:34:52;15.50;51.70
69382;DHT22;56560;50.692;12.844;2022-11-11T11:37:20;15.50;51.50
69382;DHT22;56560;50.692;12.844;2022-11-11T11:39:47;15.70;51.20
69382;DHT22;56560;50.692;12.844;2022-11-11T11:42:46;15.80;51.50
69382;DHT22;56560;50.692;12.844;2022-11-11T11:56:47;16.40;49.60
69382;DHT22;56560;50.692;12.844;2022-11-11T11:59:19;16.30;49.60
69382;DHT22;56560;50.692;12.844;2022-11-11T12:04:40;16.30;50.40
69382;DHT22;56560;50.692;12.844;2022-11-11T12:07:31;16.50;50.50
69382;DHT22;56560;50.692;12.844;2022-11-11T12:13:15;16.70;49.70
69382;DHT22;56560;50.692;12.844;2022-11-11T12:19:02;16.90;49.10
69382;DHT22;56560;50.692;12.844;2022-11-11T12:21:55;16.70;49.30
69382;DHT22;56560;50.692;12.844;2022-11-11T12:27:21;16.60;49.60
69382;DHT22;56560;50.692;12.844;2022-11-11T12:35:44;16.50;50.40
69382;DHT22;56560;50.692;12.844;2022-11-11T13:00:08;16.60;49.70
69382;DHT22;56560;50.692;12.844;2022-11-11T13:05:21;16.80;48.10
69382;DHT22;56560;50.692;12.844;2022-11-11T13:15:47;17.40;47.50
69382;DHT22;56560;50.692;12.844;2022-11-11T13:21:10;17.60;47.00
69382;DHT22;56560;50.692;12.844;2022-11-11T13:23:37;17.70;46.70
69382;DHT22;56560;50.692;12.844;2022-11-11T13:26:10;17.70;47.00
69382;DHT22;56560;50.692;12.844;2022-11-11T13:28:44;17.50;46.40
69382;DHT22;56560;50.692;12.844;2022-11-11T13:33:52;17.00;47.70
69382;DHT22;56560;50.692;12.844;2022-11-11T13:36:22;17.00;48.00
69382;DHT22;56560;50.692;12.844;2022-11-11T13:38:50;16.80;48.30
69382;DHT22;56560;50.692;12.844;2022-11-11T13:41:32;16.70;49.00
69382;DHT22;56560;50.692;12.844;2022-11-11T13:44:01;16.30;48.90
69382;DHT22;56560;50.692;12.844;2022-11-11T13:46:39;16.10;49.90
69382;DHT22;56560;50.692;12.844;2022-11-11T13:52:01;15.70;50.30
69382;DHT22;56560;50.692;12.844;2022-11-11T13:57:08;15.40;51.40
69382;DHT22;56560;50.692;12.844;2022-11-11T13:59:56;15.30;51.30
69382;DHT22;56560;50.692;12.844;2022-11-11T14:02:32;15.10;51.80
69382;DHT22;56560;50.692;12.844;2022-11-11T14:10:49;14.70;52.00
69382;DHT22;56560;50.692;12.844;2022-11-11T14:15:51;14.50;53.30
69382;DHT22;56560;50.692;12.844;2022-11-11T14:20:48;14.20;53.50
69382;DHT22;56560;50.692;12.844;2022-11-11T14:25:39;13.90;54.40
69382;DHT22;56560;50.692;12.844;2022-11-11T14:28:22;13.80;55.00
69382;DHT22;56560;50.692;12.844;2022-11-11T14:30:48;13.70;54.90
69382;DHT22;56560;50.692;12.844;2022-11-11T14:39:02;13.40;55.40
69382;DHT22;56560;50.692;12.844;2022-11-11T14:49:54;13.00;57.70
69382;DHT22;56560;50.692;12.844;2022-11-11T14:58:14;12.50;60.20
69382;DHT22;56560;50.692;12.844;2022-11-11T15:03:36;12.20;61.30
69382;DHT22;56560;50.692;12.844;2022-11-11T15:06:49;12.10;62.00
69382;DHT22;56560;50.692;12.844;2022-11-11T15:17:14;11.60;62.40
69382;DHT22;56560;50.692;12.844;2022-11-11T15:25:54;11.40;61.70
69382;DHT22;56560;50.692;12.844;2022-11-11T15:36:53;11.00;66.70
69382;DHT22;56560;50.692;12.844;2022-11-11T15:39:23;10.80;67.00
69382;DHT22;56560;50.692;12.844;2022-11-11T15:41:51;10.60;67.30
69382;DHT22;56560;50.692;12.844;2022-11-11T15:44:21;10.50;67.60
69382;DHT22;56560;50.692;12.844;2022-11-11T15:46:48;10.40;65.90
69382;DHT22;56560;50.692;12.844;2022-11-11T15:49:45;10.40;68.10
69382;DHT22;56560;50.692;12.844;2022-11-11T15:52:30;10.30;69.10
69382;DHT22;56560;50.692;12.844;2022-11-11T15:54:57;10.10;70.00
69382;DHT22;56560;50.692;12.844;2022-11-11T15:59:50;10.00;70.40
69382;DHT22;56560;50.692;12.844;2022-11-11T16:02:22;9.90;69.70
69382;DHT22;56560;50.692;12.844;2022-11-11T16:05:09;9.80;70.20
69382;DHT22;56560;50.692;12.844;2022-11-11T16:07:43;9.70;71.90
69382;DHT22;56560;50.692;12.844;2022-11-11T16:10:31;9.60;72.40
69382;DHT22;56560;50.692;12.844;2022-11-11T16:13:24;9.50;72.40
69382;DHT22;56560;50.692;12.844;2022-11-11T16:16:20;9.40;73.10
69382;DHT22;56560;50.692;12.844;2022-11-11T16:21:28;9.40;72.80
69382;DHT22;56560;50.692;12.844;2022-11-11T16:23:56;9.30;73.00
69382;DHT22;56560;50.692;12.844;2022-11-11T16:26:23;9.30;73.30
69382;DHT22;56560;50.692;12.844;2022-11-11T16:28:54;9.30;73.10
69382;DHT22;56560;50.692;12.844;2022-11-11T16:31:38;9.20;73.30
69382;DHT22;56560;50.692;12.844;2022-11-11T16:39:31;9.10;72.50
69382;DHT22;56560;50.692;12.844;2022-11-11T16:41:59;9.10;73.70
69382;DHT22;56560;50.692;12.844;2022-11-11T16:44:37;9.00;73.70
69382;DHT22;56560;50.692;12.844;2022-11-11T16:47:05;8.90;73.80
69382;DHT22;56560;50.692;12.844;2022-11-11T16:49:39;8.90;74.10
69382;DHT22;56560;50.692;12.844;2022-11-11T16:54:39;8.80;73.80
69382;DHT22;56560;50.692;12.844;2022-11-11T16:57:18;8.70;73.80
69382;DHT22;56560;50.692;12.844;2022-11-11T16:59:49;8.70;74.30
69382;DHT22;56560;50.692;12.844;2022-11-11T17:02:17;8.70;74.50
69382;DHT22;56560;50.692;12.844;2022-11-11T17:05:10;8.70;75.20
69382;DHT22;56560;50.692;12.844;2022-11-11T17:07:38;8.60;74.60
69382;DHT22;56560;50.692;12.844;2022-11-11T17:12:36;8.60;75.00
69382;DHT22;56560;50.692;12.844;2022-11-11T17:15:06;8.50;75.70
69382;DHT22;56560;50.692;12.844;2022-11-11T17:17:36;8.50;75.90
69382;DHT22;56560;50.692;12.844;2022-11-11T17:20:19;8.40;76.50
69382;DHT22;56560;50.692;12.844;2022-11-11T17:22:54;8.40;76.40
69382;DHT22;56560;50.692;12.844;2022-11-11T17:25:20;8.30;76.80
69382;DHT22;56560;50.692;12.844;2022-11-11T17:27:45;8.20;77.60
69382;DHT22;56560;50.692;12.844;2022-11-11T17:30:12;8.20;78.10
69382;DHT22;56560;50.692;12.844;2022-11-11T17:32:37;8.20;77.30
69382;DHT22;56560;50.692;12.844;2022-11-11T17:35:03;8.20;77.30
69382;DHT22;56560;50.692;12.844;2022-11-11T17:37:33;8.20;76.30
69382;DHT22;56560;50.692;12.844;2022-11-11T17:39:59;8.20;76.80
69382;DHT22;56560;50.692;12.844;2022-11-11T17:42:27;8.10;76.90
69382;DHT22;56560;50.692;12.844;2022-11-11T17:44:53;8.10;77.50
69382;DHT22;56560;50.692;12.844;2022-11-11T17:47:19;8.10;77.00
69382;DHT22;56560;50.692;12.844;2022-11-11T17:49:44;8.10;77.20
69382;DHT22;56560;50.692;12.844;2022-11-11T17:52:10;8.00;77.10
69382;DHT22;56560;50.692;12.844;2022-11-11T17:54:36;8.00;78.00
69382;DHT22;56560;50.692;12.844;2022-11-11T17:57:01;8.00;77.90
69382;DHT22;56560;50.692;12.844;2022-11-11T17:59:27;8.00;77.00
69382;DHT22;56560;50.692;12.844;2022-11-11T18:01:55;8.10;77.50
69382;DHT22;56560;50.692;12.844;2022-11-11T18:04:21;8.00;77.20
69382;DHT22;56560;50.692;12.844;2022-11-11T18:06:47;8.00;77.70
69382;DHT22;56560;50.692;12.844;2022-11-11T18:09:12;8.10;77.80
69382;DHT22;56560;50.692;12.844;2022-11-11T18:11:38;8.10;74.80
69382;DHT22;56560;50.692;12.844;2022-11-11T18:14:03;8.10;75.00
69382;DHT22;56560;50.692;12.844;2022-11-11T18:16:30;8.10;74.40
69382;DHT22;56560;50.692;12.844;2022-11-11T18:18:55;8.10;75.40
69382;DHT22;56560;50.692;12.844;2022-11-11T18:21:26;8.00;75.90
69382;DHT22;56560;50.692;12.844;2022-11-11T18:23:51;7.90;76.50
69382;DHT22;56560;50.692;12.844;2022-11-11T18:26:17;7.90;77.70
69382;DHT22;56560;50.692;12.844;2022-11-11T18:28:43;7.80;77.50
69382;DHT22;56560;50.692;12.844;2022-11-11T18:31:11;7.80;77.90
69382;DHT22;56560;50.692;12.844;2022-11-11T18:33:37;7.70;78.80
69382;DHT22;56560;50.692;12.844;2022-11-11T18:36:11;7.60;78.70
69382;DHT22;56560;50.692;12.844;2022-11-11T18:38:37;7.60;78.20
69382;DHT22;56560;50.692;12.844;2022-11-11T18:41:11;7.50;78.90
69382;DHT22;56560;50.692;12.844;2022-11-11T18:43:48;7.50;77.60
69382;DHT22;56560;50.692;12.844;2022-11-11T18:46:20;7.50;78.00
69382;DHT22;56560;50.692;12.844;2022-11-11T18:48:47;7.50;77.70
69382;DHT22;56560;50.692;12.844;2022-11-11T18:51:16;7.50;78.60
69382;DHT22;56560;50.692;12.844;2022-11-11T18:53:42;7.50;78.40
69382;DHT22;56560;50.692;12.844;2022-11-11T18:56:19;7.40;77.60
69382;DHT22;56560;50.692;12.844;2022-11-11T18:58:50;7.40;78.20